Time;durP1;ratioP1;P1;durP2;ratioP2;P2;SDS_P1;SDS_P2;PMS_P1;PMS_P2;Temp;Humidity;BMP_temperature;BMP_pressure;BME280_temperature;BME280_humidity;BME280_pressure;Samples;Min_cycle;Max_cycle;Signal;HPM_P1;HPM_P2
2022/12/13 00:00:12;;;;;;;;;;;-2.80;99.90;;;;;;5117113;27;20439;-76
2022/12/13 00:02:38;;;;;;;;;;;-2.60;99.90;;;;;;5082186;28;19927;-75
2022/12/13 00:05:03;;;;;;;;;;;-3.60;99.90;;;;;;5111422;27;19949;-75
2022/12/13 00:07:29;;;;;;;;;;;-2.70;99.90;;;;;;5108779;27;19971;-76
2022/12/13 00:09:54;;;;;;;;;;;-4.70;99.90;;;;;;5090749;27;19924;-77
2022/12/13 00:12:20;;;;;;;;;;;-2.90;99.90;;;;;;5109354;27;20008;-76
2022/12/13 00:14:46;;;;;;;;;;;-2.10;99.90;;;;;;5108204;27;19928;-75
2022/12/13 00:17:11;;;;;;;;;;;-3.00;99.90;;;;;;5091196;28;19931;-77
2022/12/13 00:19:37;;;;;;;;;;;-2.80;99.90;;;;;;5102740;27;19935;-75
2022/12/13 00:22:02;;;;;;;;;;;-2.90;99.90;;;;;;5104777;27;19924;-75
2022/12/13 00:24:28;;;;;;;;;;;-3.60;99.90;;;;;;5107524;27;19931;-76
2022/12/13 00:26:54;;;;;;;;;;;-3.30;99.90;;;;;;5102882;27;19935;-75
2022/12/13 00:29:20;;;;;;;;;;;-3.00;99.90;;;;;;5108774;27;19923;-76
2022/12/13 00:31:45;;;;;;;;;;;-3.00;99.90;;;;;;5099421;28;19924;-75
2022/12/13 00:34:11;;;;;;;;;;;-2.40;99.90;;;;;;5115533;27;19924;-75
2022/12/13 00:36:37;;;;;;;;;;;-1.10;99.90;;;;;;5087151;28;19924;-76
2022/12/13 00:39:02;;;;;;;;;;;-2.80;99.90;;;;;;5103098;28;19958;-75
2022/12/13 00:41:29;;;;;;;;;;;-2.90;99.90;;;;;;5109972;28;20364;-75
2022/12/13 00:43:55;;;;;;;;;;;-3.60;99.90;;;;;;5097387;28;19935;-76
2022/12/13 00:46:21;;;;;;;;;;;-3.60;99.90;;;;;;5104801;28;19927;-75
2022/12/13 00:48:54;;;;;;;;;;;-3.00;99.90;;;;;;5095174;28;19920;-74
2022/12/13 00:51:20;;;;;;;;;;;-2.90;99.90;;;;;;5095958;28;20404;-75
2022/12/13 00:53:46;;;;;;;;;;;-1.50;99.90;;;;;;5097955;28;20397;-75
2022/12/13 00:56:13;;;;;;;;;;;-2.80;99.90;;;;;;5096133;28;19931;-74
2022/12/13 00:58:39;;;;;;;;;;;-2.50;99.90;;;;;;5082126;28;19981;-75
2022/12/13 01:01:09;;;;;;;;;;;-3.00;99.90;;;;;;5099695;28;20010;-75
2022/12/13 01:03:35;;;;;;;;;;;-2.50;99.90;;;;;;5100700;28;19924;-75
2022/12/13 01:06:01;;;;;;;;;;;-2.00;99.90;;;;;;5099244;28;19961;-76
2022/12/13 01:08:27;;;;;;;;;;;-3.00;99.90;;;;;;5076839;28;20366;-75
2022/12/13 01:10:53;;;;;;;;;;;-2.90;99.90;;;;;;5109079;28;19934;-76
2022/12/13 01:13:19;;;;;;;;;;;-3.20;99.90;;;;;;5101543;28;19930;-75
2022/12/13 01:15:46;;;;;;;;;;;-3.00;99.90;;;;;;5081296;28;20022;-75
2022/12/13 01:18:12;;;;;;;;;;;-1.40;99.90;;;;;;5078108;28;19924;-74
2022/12/13 01:20:38;;;;;;;;;;;-3.00;99.90;;;;;;5104738;28;19932;-74
2022/12/13 01:23:04;;;;;;;;;;;-3.10;99.90;;;;;;5124378;28;20401;-75
2022/12/13 01:25:31;;;;;;;;;;;-2.00;99.90;;;;;;5088980;28;19973;-75
2022/12/13 01:28:00;;;;;;;;;;;-3.30;99.90;;;;;;5103337;28;19967;-74
2022/12/13 01:30:26;;;;;;;;;;;-3.20;99.90;;;;;;5109686;28;19969;-75
2022/12/13 01:32:51;;;;;;;;;;;-3.20;99.90;;;;;;5083196;28;19927;-75
2022/12/13 01:35:17;;;;;;;;;;;-3.40;99.90;;;;;;5108455;28;20558;-75
2022/12/13 01:37:42;;;;;;;;;;;-3.30;99.90;;;;;;5099959;28;19927;-75
2022/12/13 01:40:09;;;;;;;;;;;-3.30;99.90;;;;;;5077561;28;19923;-74
2022/12/13 01:42:38;;;;;;;;;;;-3.20;99.90;;;;;;5081581;28;19935;-75
2022/12/13 01:45:16;;;;;;;;;;;-3.20;99.90;;;;;;5091027;28;20375;-74
2022/12/13 01:47:45;;;;;;;;;;;-3.10;99.90;;;;;;5103155;28;19977;-74
2022/12/13 01:50:19;;;;;;;;;;;-3.20;99.90;;;;;;5109797;28;19970;-73
2022/12/13 01:52:45;;;;;;;;;;;-3.20;99.90;;;;;;5103972;27;19931;-74
2022/12/13 01:55:11;;;;;;;;;;;-3.20;99.90;;;;;;5100126;28;19939;-75
2022/12/13 01:57:39;;;;;;;;;;;-0.50;99.90;;;;;;5100083;28;19993;-74
2022/12/13 02:00:06;;;;;;;;;;;-3.20;99.90;;;;;;5100821;27;19926;-75
2022/12/13 02:02:32;;;;;;;;;;;-3.20;99.90;;;;;;5087543;28;20322;-74
2022/12/13 02:05:10;;;;;;;;;;;-3.10;99.90;;;;;;5076129;27;19932;-74
2022/12/13 02:07:37;;;;;;;;;;;-3.30;99.90;;;;;;5097208;28;20018;-74
2022/12/13 02:10:04;;;;;;;;;;;-3.30;99.90;;;;;;5081279;27;19950;-74
2022/12/13 02:12:31;;;;;;;;;;;-3.10;99.90;;;;;;5080468;28;19947;-75
2022/12/13 02:14:59;;;;;;;;;;;-2.70;99.90;;;;;;5086205;27;20426;-74
2022/12/13 02:17:42;;;;;;;;;;;-3.50;99.90;;;;;;5102987;27;19924;-75
2022/12/13 02:20:14;;;;;;;;;;;-3.30;99.90;;;;;;5111334;27;20280;-75
2022/12/13 02:22:58;;;;;;;;;;;-3.40;99.90;;;;;;5112810;27;19931;-74
2022/12/13 02:25:42;;;;;;;;;;;-3.40;99.90;;;;;;5084671;28;19924;-74
2022/12/13 02:28:39;;;;;;;;;;;-3.30;99.90;;;;;;5118130;27;19967;-74
2022/12/13 02:31:31;;;;;;;;;;;-3.30;99.90;;;;;;5092802;27;19923;-74
2022/12/13 02:34:09;;;;;;;;;;;-3.40;99.90;;;;;;5114513;27;19924;-74
2022/12/13 02:36:34;;;;;;;;;;;-3.50;99.90;;;;;;5097629;27;20367;-74
2022/12/13 02:39:04;;;;;;;;;;;-2.40;99.90;;;;;;5116020;27;19928;-74
2022/12/13 02:41:37;;;;;;;;;;;-3.60;99.90;;;;;;5120365;27;19924;-74
2022/12/13 02:44:08;;;;;;;;;;;-3.50;99.90;;;;;;5107890;27;19963;-74
2022/12/13 02:46:36;;;;;;;;;;;-3.60;99.90;;;;;;5110114;27;20383;-74
2022/12/13 02:49:02;;;;;;;;;;;-3.50;99.90;;;;;;5104864;27;19974;-74
2022/12/13 02:51:29;;;;;;;;;;;-3.50;99.90;;;;;;5107243;28;19979;-74
2022/12/13 02:53:54;;;;;;;;;;;-3.90;99.90;;;;;;5116857;27;19984;-74
2022/12/13 02:56:20;;;;;;;;;;;-3.40;99.90;;;;;;5090915;27;19927;-74
2022/12/13 02:58:51;;;;;;;;;;;-3.50;99.90;;;;;;5124822;27;20414;-74
2022/12/13 03:01:16;;;;;;;;;;;-3.40;99.90;;;;;;5112940;27;20437;-74
2022/12/13 03:04:06;;;;;;;;;;;-3.60;99.90;;;;;;5116194;27;19928;-74
2022/12/13 03:06:44;;;;;;;;;;;-3.40;99.90;;;;;;5092636;27;20426;-73
2022/12/13 03:09:13;;;;;;;;;;;-3.80;99.90;;;;;;5119864;27;19933;-75
2022/12/13 03:14:32;;;;;;;;;;;-3.70;99.90;;;;;;5121752;27;19923;-75
2022/12/13 03:17:00;;;;;;;;;;;-3.80;99.90;;;;;;5078243;27;19967;-73
2022/12/13 03:19:25;;;;;;;;;;;-3.60;99.90;;;;;;5113631;27;20026;-74
2022/12/13 03:21:51;;;;;;;;;;;-3.70;99.90;;;;;;5092853;27;20019;-75
2022/12/13 03:24:18;;;;;;;;;;;-4.00;99.90;;;;;;5120296;27;19931;-74
2022/12/13 03:26:44;;;;;;;;;;;-3.40;99.90;;;;;;5125206;27;19927;-76
2022/12/13 03:29:09;;;;;;;;;;;-3.70;99.90;;;;;;5118538;27;19996;-74
2022/12/13 03:31:35;;;;;;;;;;;-3.70;99.90;;;;;;5105092;27;20364;-73
2022/12/13 03:34:01;;;;;;;;;;;-5.00;99.90;;;;;;5102004;27;19980;-72
2022/12/13 03:36:26;;;;;;;;;;;-3.70;99.90;;;;;;5095376;27;19949;-73
2022/12/13 03:38:53;;;;;;;;;;;-3.70;99.90;;;;;;5107340;27;19927;-73
2022/12/13 03:41:20;;;;;;;;;;;-1.80;99.90;;;;;;5085683;27;19937;-73
2022/12/13 03:43:46;;;;;;;;;;;-4.10;99.90;;;;;;5100772;27;19966;-73
2022/12/13 03:46:12;;;;;;;;;;;-3.50;99.90;;;;;;5075325;28;20382;-73
2022/12/13 03:48:37;;;;;;;;;;;-3.70;99.90;;;;;;5109328;27;19927;-73
2022/12/13 03:51:03;;;;;;;;;;;-3.90;99.90;;;;;;5097166;28;20669;-75
2022/12/13 03:53:29;;;;;;;;;;;-3.70;99.90;;;;;;5102222;27;19924;-76
2022/12/13 03:55:55;;;;;;;;;;;-5.00;99.90;;;;;;5096122;28;19942;-73
2022/12/13 03:58:20;;;;;;;;;;;-3.70;99.90;;;;;;5082148;28;19932;-73
2022/12/13 04:00:46;;;;;;;;;;;-3.80;99.90;;;;;;5102870;27;19949;-73
2022/12/13 04:03:12;;;;;;;;;;;-3.80;99.90;;;;;;5096954;27;20025;-74
2022/12/13 04:05:37;;;;;;;;;;;-3.80;99.90;;;;;;5099001;28;19934;-73
2022/12/13 04:08:03;;;;;;;;;;;-3.70;99.90;;;;;;5099573;28;19923;-74
2022/12/13 04:10:29;;;;;;;;;;;-3.60;99.90;;;;;;5098805;28;20010;-74
2022/12/13 04:15:39;;;;;;;;;;;-3.70;99.90;;;;;;5098213;28;19959;-73
2022/12/13 04:18:05;;;;;;;;;;;-3.80;99.90;;;;;;5110139;27;20440;-74
2022/12/13 04:20:30;;;;;;;;;;;-3.80;99.90;;;;;;5088539;28;20507;-73
2022/12/13 04:22:56;;;;;;;;;;;-3.70;99.90;;;;;;5089437;28;19927;-74
2022/12/13 04:25:21;;;;;;;;;;;-1.60;99.90;;;;;;5110268;27;19928;-74
2022/12/13 04:27:47;;;;;;;;;;;-3.90;99.90;;;;;;5110614;27;19949;-74
2022/12/13 04:30:13;;;;;;;;;;;-4.00;99.90;;;;;;5108089;27;19932;-74
2022/12/13 04:32:38;;;;;;;;;;;-4.10;99.90;;;;;;5117874;27;19923;-74
2022/12/13 04:35:04;;;;;;;;;;;-4.00;99.90;;;;;;5100224;27;19977;-73
2022/12/13 04:37:30;;;;;;;;;;;-4.10;99.90;;;;;;5081896;28;19930;-72
2022/12/13 04:39:55;;;;;;;;;;;-3.90;99.90;;;;;;5109714;27;19924;-74
2022/12/13 04:42:21;;;;;;;;;;;-2.60;99.90;;;;;;5105929;28;19928;-73
2022/12/13 04:44:48;;;;;;;;;;;-3.90;99.90;;;;;;5109143;27;19931;-74
2022/12/13 04:47:14;;;;;;;;;;;-4.10;99.90;;;;;;5102354;28;19984;-74
2022/12/13 04:49:40;;;;;;;;;;;-4.00;99.90;;;;;;5110445;28;19963;-73
2022/12/13 04:52:05;;;;;;;;;;;-4.10;99.90;;;;;;5102130;28;19978;-74
2022/12/13 04:54:31;;;;;;;;;;;-4.00;99.90;;;;;;5105496;28;19971;-74
2022/12/13 04:56:57;;;;;;;;;;;-4.30;99.90;;;;;;5087887;28;19950;-74
2022/12/13 04:59:23;;;;;;;;;;;-4.10;99.90;;;;;;5114847;28;19927;-74
2022/12/13 05:01:48;;;;;;;;;;;-3.50;99.90;;;;;;5101207;28;19941;-74
2022/12/13 05:04:14;;;;;;;;;;;-4.10;99.90;;;;;;5104939;28;20015;-74
2022/12/13 05:06:39;;;;;;;;;;;-4.10;99.90;;;;;;5099940;28;19995;-75
2022/12/13 05:09:06;;;;;;;;;;;-4.10;99.90;;;;;;5099625;28;20324;-74
2022/12/13 05:11:33;;;;;;;;;;;-4.10;99.90;;;;;;5082580;28;19924;-75
2022/12/13 05:13:58;;;;;;;;;;;-4.10;99.90;;;;;;5101467;28;19931;-74
2022/12/13 05:16:24;;;;;;;;;;;-3.20;99.90;;;;;;5094832;28;19920;-74
2022/12/13 05:18:50;;;;;;;;;;;-4.10;99.90;;;;;;5130373;27;19927;-74
2022/12/13 05:21:15;;;;;;;;;;;-4.00;99.90;;;;;;5114073;28;19961;-74
2022/12/13 05:23:41;;;;;;;;;;;-4.40;99.90;;;;;;5093386;28;19997;-74
2022/12/13 05:26:07;;;;;;;;;;;-4.00;99.90;;;;;;5079831;28;19924;-75
2022/12/13 05:28:35;;;;;;;;;;;-3.50;99.90;;;;;;5121937;27;19924;-74
2022/12/13 05:31:09;;;;;;;;;;;-4.00;99.90;;;;;;5098298;28;19928;-74
2022/12/13 05:33:34;;;;;;;;;;;-4.10;99.90;;;;;;5107046;27;19924;-74
2022/12/13 05:36:00;;;;;;;;;;;-3.40;99.90;;;;;;5079498;27;19928;-76
2022/12/13 05:38:25;;;;;;;;;;;-4.10;99.90;;;;;;5094147;27;19924;-73
2022/12/13 05:40:51;;;;;;;;;;;-2.90;99.90;;;;;;5114318;27;19924;-73
2022/12/13 05:43:16;;;;;;;;;;;-4.00;99.90;;;;;;5109574;27;20387;-73
2022/12/13 05:45:42;;;;;;;;;;;-3.60;99.90;;;;;;5110074;28;19986;-74
2022/12/13 05:48:09;;;;;;;;;;;-4.00;99.90;;;;;;5082301;28;19927;-73
2022/12/13 05:50:35;;;;;;;;;;;-4.00;99.90;;;;;;5105330;28;19924;-74
2022/12/13 05:53:02;;;;;;;;;;;-4.00;99.90;;;;;;5114337;27;19950;-74
2022/12/13 05:55:27;;;;;;;;;;;-4.00;99.90;;;;;;5118101;27;20372;-75
2022/12/13 05:57:53;;;;;;;;;;;-4.00;99.90;;;;;;5093340;28;19943;-74
2022/12/13 06:00:19;;;;;;;;;;;-3.30;99.90;;;;;;5128974;27;19931;-74
2022/12/13 06:02:44;;;;;;;;;;;-4.10;99.90;;;;;;5117881;27;19924;-74
2022/12/13 06:05:10;;;;;;;;;;;-4.20;99.90;;;;;;5106414;27;19932;-74
2022/12/13 06:07:36;;;;;;;;;;;-3.60;99.90;;;;;;5107123;27;19928;-74
2022/12/13 06:10:05;;;;;;;;;;;-2.40;99.90;;;;;;5125399;27;19969;-75
2022/12/13 06:12:33;;;;;;;;;;;-3.70;99.90;;;;;;5094764;27;20001;-75
2022/12/13 06:14:59;;;;;;;;;;;-3.90;99.90;;;;;;5105348;28;19923;-75
2022/12/13 06:17:24;;;;;;;;;;;-4.10;99.90;;;;;;5107967;27;19928;-75
2022/12/13 06:19:50;;;;;;;;;;;-4.00;99.90;;;;;;5100128;27;19969;-74
2022/12/13 06:22:16;;;;;;;;;;;-4.50;99.90;;;;;;5105553;27;20030;-75
2022/12/13 06:24:42;;;;;;;;;;;-4.70;99.90;;;;;;5102323;27;20383;-74
2022/12/13 06:27:07;;;;;;;;;;;-4.10;99.90;;;;;;5100590;28;19924;-75
2022/12/13 06:29:33;;;;;;;;;;;-4.10;99.90;;;;;;5125591;27;19931;-75
2022/12/13 06:31:59;;;;;;;;;;;-3.00;99.90;;;;;;5114459;27;20290;-76
2022/12/13 06:34:25;;;;;;;;;;;-2.10;99.90;;;;;;5092577;27;19928;-74
2022/12/13 06:36:51;;;;;;;;;;;-4.80;99.90;;;;;;5105641;27;20328;-74
2022/12/13 06:39:16;;;;;;;;;;;-4.30;99.90;;;;;;5101532;28;20371;-75
2022/12/13 06:41:42;;;;;;;;;;;-1.90;99.90;;;;;;5088533;28;20088;-74
2022/12/13 06:44:07;;;;;;;;;;;-4.40;99.90;;;;;;5123018;27;19929;-74
2022/12/13 06:46:33;;;;;;;;;;;-4.10;99.90;;;;;;5087651;28;19928;-74
2022/12/13 06:48:58;;;;;;;;;;;-4.30;99.90;;;;;;5082752;28;19924;-74
2022/12/13 06:51:24;;;;;;;;;;;-2.10;99.90;;;;;;5093782;27;19924;-75
2022/12/13 06:53:50;;;;;;;;;;;-4.30;99.90;;;;;;5115398;27;20010;-74
2022/12/13 06:56:15;;;;;;;;;;;-4.80;99.90;;;;;;5119335;27;19923;-74
2022/12/13 06:58:41;;;;;;;;;;;-4.30;99.90;;;;;;5118175;27;19992;-75
2022/12/13 07:01:15;;;;;;;;;;;-4.50;99.90;;;;;;5085006;27;19928;-74
2022/12/13 07:03:40;;;;;;;;;;;-4.20;99.90;;;;;;5079645;28;19943;-75
2022/12/13 07:06:07;;;;;;;;;;;-4.10;99.90;;;;;;5089187;27;19924;-75
2022/12/13 07:08:35;;;;;;;;;;;-4.20;99.90;;;;;;5100442;27;19989;-74
2022/12/13 07:11:01;;;;;;;;;;;-4.10;99.90;;;;;;5109394;27;19928;-74
2022/12/13 07:13:26;;;;;;;;;;;-4.30;99.90;;;;;;5087152;27;19962;-75
2022/12/13 07:15:52;;;;;;;;;;;-1.80;99.90;;;;;;5097086;27;20019;-74
2022/12/13 07:18:18;;;;;;;;;;;-4.30;99.90;;;;;;5106288;27;19993;-75
2022/12/13 07:20:43;;;;;;;;;;;-5.80;99.90;;;;;;5114489;27;20481;-75
2022/12/13 07:23:09;;;;;;;;;;;-2.00;99.90;;;;;;5106720;27;19935;-76
2022/12/13 07:25:35;;;;;;;;;;;-1.80;99.90;;;;;;5130989;27;19977;-76
2022/12/13 07:28:02;;;;;;;;;;;-4.20;99.90;;;;;;5116449;27;19962;-75
2022/12/13 07:30:29;;;;;;;;;;;-4.40;99.90;;;;;;5112156;27;19969;-76
2022/12/13 07:32:54;;;;;;;;;;;-4.40;99.90;;;;;;5102859;28;19931;-76
2022/12/13 07:35:20;;;;;;;;;;;-4.20;99.90;;;;;;5082505;28;20284;-76
2022/12/13 07:37:45;;;;;;;;;;;-4.10;99.90;;;;;;5108017;27;19930;-75
2022/12/13 07:40:11;;;;;;;;;;;-3.60;99.90;;;;;;5103049;27;19923;-73
2022/12/13 07:42:37;;;;;;;;;;;-4.00;99.90;;;;;;5110435;27;20332;-75
2022/12/13 07:45:02;;;;;;;;;;;-3.80;99.90;;;;;;5121229;27;19935;-74
2022/12/13 07:47:29;;;;;;;;;;;-4.10;99.90;;;;;;5092166;27;19942;-74
2022/12/13 07:49:57;;;;;;;;;;;-4.20;99.90;;;;;;5110061;27;21584;-74
2022/12/13 07:52:23;;;;;;;;;;;-2.50;99.90;;;;;;5087608;28;19928;-73
2022/12/13 07:54:48;;;;;;;;;;;-3.50;99.90;;;;;;5115553;27;19977;-73
2022/12/13 07:57:14;;;;;;;;;;;-4.00;99.90;;;;;;5123276;27;20035;-73
2022/12/13 07:59:40;;;;;;;;;;;-4.10;99.90;;;;;;5103552;27;19938;-74
2022/12/13 08:02:07;;;;;;;;;;;-3.00;99.90;;;;;;5097795;27;20418;-74
2022/12/13 08:04:33;;;;;;;;;;;-4.10;99.90;;;;;;5105302;27;19928;-74
2022/12/13 08:06:58;;;;;;;;;;;-1.30;99.90;;;;;;5098182;27;20286;-74
2022/12/13 08:09:24;;;;;;;;;;;-2.60;99.90;;;;;;5111553;27;19927;-73
2022/12/13 08:11:50;;;;;;;;;;;-4.10;99.90;;;;;;5079663;28;19924;-74
2022/12/13 08:14:15;;;;;;;;;;;-2.60;99.90;;;;;;5088576;28;19924;-75
2022/12/13 08:16:41;;;;;;;;;;;-4.10;99.90;;;;;;5106586;27;20407;-73
2022/12/13 08:19:08;;;;;;;;;;;-2.60;99.90;;;;;;5124557;27;19923;-74
2022/12/13 08:21:35;;;;;;;;;;;-3.40;99.90;;;;;;5088804;27;19924;-75
2022/12/13 08:24:01;;;;;;;;;;;-1.80;99.90;;;;;;5110549;27;19932;-74
2022/12/13 08:26:27;;;;;;;;;;;-1.90;99.90;;;;;;5110313;27;19931;-74
2022/12/13 08:28:52;;;;;;;;;;;-4.10;99.90;;;;;;5100998;28;19927;-74
2022/12/13 08:31:18;;;;;;;;;;;-4.00;99.90;;;;;;5107659;28;20303;-75
2022/12/13 08:33:46;;;;;;;;;;;-3.80;99.90;;;;;;5129989;27;20009;-75
2022/12/13 08:36:17;;;;;;;;;;;-3.80;99.90;;;;;;5094263;28;19928;-75
2022/12/13 08:38:43;;;;;;;;;;;-3.80;99.90;;;;;;5128563;27;20107;-73
2022/12/13 08:41:08;;;;;;;;;;;-3.90;99.90;;;;;;5114115;27;19968;-74
2022/12/13 08:43:34;;;;;;;;;;;-4.00;99.90;;;;;;5126493;28;20302;-73
2022/12/13 08:46:00;;;;;;;;;;;-4.10;99.90;;;;;;5106611;27;20410;-74
2022/12/13 08:48:26;;;;;;;;;;;-1.30;99.90;;;;;;5107125;28;20356;-74
2022/12/13 08:50:51;;;;;;;;;;;-4.00;99.90;;;;;;5126316;28;20319;-74
2022/12/13 08:53:17;;;;;;;;;;;-4.00;99.90;;;;;;5104696;28;19924;-74
2022/12/13 08:55:42;;;;;;;;;;;-3.50;99.90;;;;;;5085722;28;20286;-75
2022/12/13 08:58:08;;;;;;;;;;;-3.60;99.90;;;;;;5125984;28;20363;-74
2022/12/13 09:00:34;;;;;;;;;;;-3.70;99.90;;;;;;5069945;27;19928;-75
2022/12/13 09:03:02;;;;;;;;;;;-3.70;99.90;;;;;;5120288;27;19928;-75
2022/12/13 09:05:32;;;;;;;;;;;-3.50;99.90;;;;;;5117250;27;19930;-75
2022/12/13 09:07:58;;;;;;;;;;;-2.80;99.90;;;;;;5102059;28;19923;-74
2022/12/13 09:10:24;;;;;;;;;;;-1.10;99.90;;;;;;5109636;28;19935;-75
2022/12/13 09:12:49;;;;;;;;;;;-3.30;99.90;;;;;;5115372;27;19942;-74
2022/12/13 09:15:15;;;;;;;;;;;-3.60;99.90;;;;;;5085853;27;20013;-74
2022/12/13 09:17:40;;;;;;;;;;;-1.30;99.90;;;;;;5110561;27;19930;-74
2022/12/13 09:20:08;;;;;;;;;;;-3.30;99.90;;;;;;5129094;27;20431;-74
2022/12/13 09:22:34;;;;;;;;;;;-3.40;99.90;;;;;;5115547;27;19935;-74
2022/12/13 09:25:00;;;;;;;;;;;-3.40;99.90;;;;;;5111224;28;20464;-75
2022/12/13 09:27:26;;;;;;;;;;;-3.40;99.90;;;;;;5111210;27;20014;-75
2022/12/13 09:29:52;;;;;;;;;;;-3.00;99.90;;;;;;5119009;27;19924;-75
2022/12/13 09:32:17;;;;;;;;;;;-3.20;99.90;;;;;;5121520;27;20011;-76
2022/12/13 09:34:43;;;;;;;;;;;-3.20;99.90;;;;;;5120648;27;19974;-76
2022/12/13 09:37:10;;;;;;;;;;;-3.30;99.90;;;;;;5129003;27;19999;-76
2022/12/13 09:39:36;;;;;;;;;;;-3.20;99.90;;;;;;5109242;27;20302;-76
2022/12/13 09:42:02;;;;;;;;;;;-3.20;99.90;;;;;;5093633;28;19935;-76
2022/12/13 09:44:38;;;;;;;;;;;-3.10;99.90;;;;;;5104043;27;20013;-76
2022/12/13 09:47:08;;;;;;;;;;;-2.90;99.90;;;;;;5133017;27;19930;-76
2022/12/13 09:49:34;;;;;;;;;;;-2.00;99.90;;;;;;5112900;27;19947;-76
2022/12/13 09:52:01;;;;;;;;;;;-2.90;99.90;;;;;;5113208;27;20371;-76
2022/12/13 09:54:27;;;;;;;;;;;-2.70;99.90;;;;;;5131043;27;19927;-76
2022/12/13 09:56:54;;;;;;;;;;;-1.70;99.90;;;;;;5111624;28;20375;-76
2022/12/13 09:59:26;;;;;;;;;;;-2.70;99.90;;;;;;5129675;27;19923;-76
2022/12/13 10:01:52;;;;;;;;;;;-2.70;99.90;;;;;;5101917;28;20268;-76
2022/12/13 10:04:18;;;;;;;;;;;-2.60;99.90;;;;;;5100213;27;19928;-76
2022/12/13 10:06:43;;;;;;;;;;;-2.50;99.90;;;;;;5114208;27;19924;-76
2022/12/13 10:09:11;;;;;;;;;;;-2.50;99.90;;;;;;5127572;27;20018;-76
2022/12/13 10:11:45;;;;;;;;;;;-2.40;99.90;;;;;;5103313;27;20035;-77
2022/12/13 10:14:19;;;;;;;;;;;-2.50;99.90;;;;;;5125769;27;19923;-76
2022/12/13 10:16:47;;;;;;;;;;;-2.30;99.90;;;;;;5128503;27;19924;-76
2022/12/13 10:19:15;;;;;;;;;;;-2.20;99.90;;;;;;5132130;27;19931;-76
2022/12/13 10:21:41;;;;;;;;;;;-1.30;99.90;;;;;;5110215;27;20407;-76
2022/12/13 10:24:20;;;;;;;;;;;-2.30;99.90;;;;;;5097939;28;19930;-76
2022/12/13 10:26:46;;;;;;;;;;;-2.10;99.90;;;;;;5127960;27;19939;-74
2022/12/13 10:29:12;;;;;;;;;;;-0.10;99.90;;;;;;5099222;28;19920;-76
2022/12/13 10:31:42;;;;;;;;;;;-2.00;99.90;;;;;;5111929;27;20257;-76
2022/12/13 10:34:29;;;;;;;;;;;-1.90;99.90;;;;;;5082072;28;20019;-76
2022/12/13 10:36:55;;;;;;;;;;;-3.50;99.90;;;;;;5117997;27;19946;-76
2022/12/13 10:39:38;;;;;;;;;;;-1.70;99.90;;;;;;5115650;27;20426;-75
2022/12/13 10:42:05;;;;;;;;;;;-1.80;99.90;;;;;;5111832;27;19931;-75
2022/12/13 10:44:31;;;;;;;;;;;-1.90;99.90;;;;;;5104990;27;19928;-75
2022/12/13 10:47:08;;;;;;;;;;;-1.90;99.90;;;;;;5098351;28;20318;-77
2022/12/13 10:49:40;;;;;;;;;;;-1.70;99.90;;;;;;5086029;27;19924;-75
2022/12/13 10:52:07;;;;;;;;;;;-1.70;99.90;;;;;;5076986;28;20002;-76
2022/12/13 10:54:35;;;;;;;;;;;-1.10;99.90;;;;;;5101923;27;20222;-76
2022/12/13 10:57:01;;;;;;;;;;;-1.50;99.90;;;;;;5100950;28;19931;-76
2022/12/13 10:59:32;;;;;;;;;;;-0.70;99.90;;;;;;5128522;27;20022;-76
2022/12/13 11:01:59;;;;;;;;;;;-1.40;99.90;;;;;;5082297;28;19920;-76
2022/12/13 11:04:35;;;;;;;;;;;0.80;99.90;;;;;;5102728;28;19924;-76
2022/12/13 11:07:19;;;;;;;;;;;-1.30;99.90;;;;;;5110545;27;19923;-76
2022/12/13 11:09:45;;;;;;;;;;;-1.20;99.90;;;;;;5099557;27;19928;-76
2022/12/13 11:12:13;;;;;;;;;;;-0.70;99.90;;;;;;5109965;27;19924;-76
2022/12/13 11:14:47;;;;;;;;;;;-1.10;99.90;;;;;;5129257;27;20308;-76
2022/12/13 11:17:15;;;;;;;;;;;-1.10;99.90;;;;;;5103386;27;19934;-76
2022/12/13 11:19:45;;;;;;;;;;;-1.10;99.90;;;;;;5113706;27;20391;-77
2022/12/13 11:22:25;;;;;;;;;;;-1.10;99.90;;;;;;5128313;27;19930;-76
2022/12/13 11:24:54;;;;;;;;;;;-1.00;99.90;;;;;;5080371;27;20294;-77
2022/12/13 11:27:20;;;;;;;;;;;-1.40;99.90;;;;;;5118885;27;20019;-77
2022/12/13 11:29:57;;;;;;;;;;;-1.10;99.90;;;;;;5092471;27;19978;-77
2022/12/13 11:32:32;;;;;;;;;;;-0.90;99.90;;;;;;5095173;27;19932;-77
2022/12/13 11:35:12;;;;;;;;;;;-1.00;99.90;;;;;;5090623;27;20052;-77
2022/12/13 11:37:50;;;;;;;;;;;-0.90;99.90;;;;;;5107233;27;19931;-77
2022/12/13 11:40:19;;;;;;;;;;;-0.80;99.90;;;;;;5088092;28;20014;-77
2022/12/13 11:42:52;;;;;;;;;;;-0.90;99.90;;;;;;5082295;27;19923;-77
2022/12/13 11:45:36;;;;;;;;;;;-0.90;99.90;;;;;;5088297;28;19976;-77
2022/12/13 11:48:08;;;;;;;;;;;-0.80;99.90;;;;;;5106318;28;20264;-77
2022/12/13 11:50:38;;;;;;;;;;;-0.80;99.90;;;;;;5110836;27;19989;-77
2022/12/13 11:53:23;;;;;;;;;;;-0.90;99.90;;;;;;5101673;27;19931;-77
2022/12/13 11:55:56;;;;;;;;;;;-0.80;99.90;;;;;;5110032;27;20902;-78
2022/12/13 11:58:28;;;;;;;;;;;0.30;99.90;;;;;;5095314;28;19924;-78
2022/12/13 12:01:01;;;;;;;;;;;-0.70;99.90;;;;;;5099572;28;19949;-77
2022/12/13 12:03:33;;;;;;;;;;;-0.80;99.90;;;;;;5098277;27;19958;-78
2022/12/13 12:06:13;;;;;;;;;;;-0.70;99.90;;;;;;5102082;27;19924;-77
2022/12/13 12:08:48;;;;;;;;;;;0.80;99.90;;;;;;5086731;27;20011;-78
2022/12/13 12:11:13;;;;;;;;;;;-0.60;99.90;;;;;;5106005;27;19994;-78
2022/12/13 12:14:08;;;;;;;;;;;-0.70;99.90;;;;;;5098334;27;19963;-76
2022/12/13 12:16:49;;;;;;;;;;;-0.60;99.90;;;;;;5087902;28;19924;-76
2022/12/13 12:19:17;;;;;;;;;;;-0.60;99.90;;;;;;5099920;27;20329;-76
2022/12/13 12:22:01;;;;;;;;;;;0.70;99.90;;;;;;5112516;27;19930;-76
2022/12/13 12:24:27;;;;;;;;;;;-0.60;99.90;;;;;;5110194;27;19931;-77
2022/12/13 12:27:11;;;;;;;;;;;-0.60;99.90;;;;;;5112258;27;19950;-76
2022/12/13 12:29:52;;;;;;;;;;;-0.60;99.90;;;;;;5111683;27;20164;-77
2022/12/13 12:32:38;;;;;;;;;;;-0.70;99.90;;;;;;5120327;27;20475;-77
2022/12/13 12:35:07;;;;;;;;;;;-0.60;99.90;;;;;;5083037;28;19977;-77
2022/12/13 12:37:48;;;;;;;;;;;-0.70;99.90;;;;;;5100625;28;20306;-76
2022/12/13 12:40:31;;;;;;;;;;;-0.60;99.90;;;;;;5116453;27;20030;-76
2022/12/13 12:42:57;;;;;;;;;;;-0.50;99.90;;;;;;5100452;28;20022;-76
2022/12/13 12:45:22;;;;;;;;;;;-0.90;99.90;;;;;;5103286;28;20018;-76
2022/12/13 12:48:01;;;;;;;;;;;-0.60;99.90;;;;;;5105279;27;20406;-77
2022/12/13 12:50:26;;;;;;;;;;;-0.60;99.90;;;;;;5099895;27;19928;-78
2022/12/13 12:53:01;;;;;;;;;;;-0.60;99.90;;;;;;5122172;28;20084;-78
2022/12/13 12:55:27;;;;;;;;;;;-0.60;99.90;;;;;;5115275;28;20147;-77
2022/12/13 12:57:58;;;;;;;;;;;-0.50;99.90;;;;;;5096296;28;19928;-78
2022/12/13 13:00:24;;;;;;;;;;;-0.60;99.90;;;;;;5120384;28;19936;-77
2022/12/13 13:02:58;;;;;;;;;;;-0.50;99.90;;;;;;5112178;28;20011;-77
2022/12/13 13:05:44;;;;;;;;;;;-0.50;99.90;;;;;;5100043;28;19931;-78
2022/12/13 13:08:17;;;;;;;;;;;-0.40;99.90;;;;;;5117981;28;19993;-77
2022/12/13 13:10:43;;;;;;;;;;;-0.40;99.90;;;;;;5087518;28;19924;-77
2022/12/13 13:13:27;;;;;;;;;;;-0.40;99.90;;;;;;5106536;28;19932;-76
2022/12/13 13:15:54;;;;;;;;;;;-0.40;99.90;;;;;;5102797;28;20030;-75
2022/12/13 13:18:38;;;;;;;;;;;-0.40;99.90;;;;;;5100337;28;19924;-75
2022/12/13 13:21:22;;;;;;;;;;;-0.40;99.90;;;;;;5092828;28;19943;-74
2022/12/13 13:24:00;;;;;;;;;;;-0.60;99.90;;;;;;5087836;28;19923;-75
2022/12/13 13:26:27;;;;;;;;;;;-0.30;99.90;;;;;;5094585;28;20398;-75
2022/12/13 13:28:53;;;;;;;;;;;-0.40;99.90;;;;;;5105312;28;19932;-76
2022/12/13 13:31:18;;;;;;;;;;;-0.40;99.90;;;;;;5125904;28;19924;-75
2022/12/13 13:33:44;;;;;;;;;;;-0.40;99.90;;;;;;5124353;28;19970;-75
2022/12/13 13:36:30;;;;;;;;;;;-0.30;99.90;;;;;;5113841;27;19927;-74
2022/12/13 13:38:55;;;;;;;;;;;-0.40;99.90;;;;;;5113153;28;19924;-75
2022/12/13 13:41:37;;;;;;;;;;;-0.40;99.90;;;;;;5103267;28;19931;-74
2022/12/13 13:44:22;;;;;;;;;;;-0.30;99.90;;;;;;5091538;28;19923;-75
2022/12/13 13:47:07;;;;;;;;;;;1.50;99.90;;;;;;5083637;27;20026;-75
2022/12/13 13:49:32;;;;;;;;;;;-0.40;99.90;;;;;;5106291;27;19932;-74
2022/12/13 13:52:18;;;;;;;;;;;1.20;99.90;;;;;;5098733;28;19931;-75
2022/12/13 13:54:57;;;;;;;;;;;-0.40;99.90;;;;;;5081366;27;20010;-75
2022/12/13 13:57:27;;;;;;;;;;;-0.40;99.90;;;;;;5105092;28;19931;-75
2022/12/13 13:59:52;;;;;;;;;;;-0.50;99.90;;;;;;5086763;27;20229;-75
2022/12/13 14:02:37;;;;;;;;;;;-0.50;99.90;;;;;;5105530;28;20043;-75
2022/12/13 14:05:12;;;;;;;;;;;-0.50;99.90;;;;;;5105771;28;20035;-75
2022/12/13 14:07:37;;;;;;;;;;;-0.50;99.90;;;;;;5100869;27;19931;-76
2022/12/13 14:10:06;;;;;;;;;;;-0.50;99.90;;;;;;5105406;27;19931;-76
2022/12/13 14:12:37;;;;;;;;;;;-0.50;99.90;;;;;;5081191;28;20386;-75
2022/12/13 14:15:31;;;;;;;;;;;-0.50;99.90;;;;;;5105962;27;20379;-75
2022/12/13 14:18:12;;;;;;;;;;;-0.50;99.90;;;;;;5112751;27;20338;-74
2022/12/13 14:20:54;;;;;;;;;;;-0.60;99.90;;;;;;5093263;27;19924;-74
2022/12/13 14:23:20;;;;;;;;;;;-0.60;99.90;;;;;;5099603;27;20011;-74
2022/12/13 14:25:48;;;;;;;;;;;0.70;99.90;;;;;;5108565;27;20018;-74
2022/12/13 14:28:17;;;;;;;;;;;-0.60;99.90;;;;;;5091796;28;19920;-75
2022/12/13 14:30:43;;;;;;;;;;;-0.70;99.90;;;;;;5123122;27;19923;-75